Aviation Digital Data Service (ADDS)

Output produced by METARs form (1358 UTC 27 November 2021)
found at http://www.aviationweather.gov/metar/data/
 
METAR text: WSSL 271300Z VRB01KT 9000 RA FEW015 FEW018TCU BKN150 25/24 Q1010
Conditions at: WSSL (SINGAPORE/SELETA, SG) observed 1300 UTC 27 November 2021
Temperature: 25.0°C (77°F)
Dewpoint: 24.0°C (75°F) [RH = 94%]
Pressure (altimeter): 29.82 inches Hg (1010.0 mb)
Winds: variable direction winds at 1 MPH (1 knots; 0.5 m/s)
Visibility: 6 miles ( 9 km)
Ceiling: 15000 feet AGL
Clouds: few clouds at 1500 feet AGL
few clouds at 1800 feet AGL
broken clouds at 15000 feet AGL
Weather: RA  (moderate rain)

Forecast for: WSSL (SINGAPORE/SELETA, SG)
Text: TAF WSSL 271100Z 2712/2818 30007KT 9999 FEW015 SCT020
Forecast period: 1200 UTC 27 November 2021 to 1800 UTC 28 November 2021
Forecast type: FROM: standard forecast or significant change
Winds: from the WNW (300 degrees) at 8 MPH (7 knots; 3.6 m/s)
Visibility: 6 or more miles (10+ km)
Ceiling: at least 12,000 feet AGL
Clouds: few clouds at 1500 feet AGL
scattered clouds at 2000 feet AGL
Weather: no significant weather forecast for this period